CAL3185 PAKT-KEYW
Flight info
| Callsign | CAL3185 |
|---|---|
| Flight time | N/A |
| Altitude | 35000 |
| Route | ANN3 ANN YYD WASEN 49N110W GGW DPR ONL MCI MEM MGM LAL EYW |
| Aircraft | B77W/H-SDE1E2E3FGHIJ2J3J4J5M1RWXY/LB1D1 |
Departure
| Time | 2026-04-25 11:32 |
|---|---|
| Airport | Ketchikan International Airport (PAKT) |
Arrival
| Time | N/A |
|---|---|
| Airport | Key West International Airport (KEYW) |
| Time | Latitude | Longitude | Altitude | Speed | Heading |
|---|---|---|---|---|---|
| 2026-04-25 10:57 | 55.35510 | -131.70901 | 81 ft | 0 kts | 317° |
| 2026-04-25 11:24 | 55.35512 | -131.70905 | 80 ft | 1 kts | 317° |
| 2026-04-25 11:25 | 55.35522 | -131.70926 | 80 ft | 2 kts | 292° |
| 2026-04-25 11:25 | 55.35518 | -131.70947 | 80 ft | 2 kts | 219° |
| 2026-04-25 11:25 | 55.35479 | -131.70929 | 81 ft | 8 kts | 143° |
| 2026-04-25 11:25 | 55.35443 | -131.70874 | 83 ft | 5 kts | 137° |
| 2026-04-25 11:26 | 55.35421 | -131.70839 | 83 ft | 5 kts | 137° |
| 2026-04-25 11:26 | 55.35379 | -131.70769 | 83 ft | 10 kts | 136° |
| 2026-04-25 11:26 | 55.35326 | -131.70679 | 82 ft | 10 kts | 136° |
| 2026-04-25 11:26 | 55.35278 | -131.70599 | 84 ft | 7 kts | 135° |
| 2026-04-25 11:27 | 55.35245 | -131.70543 | 87 ft | 5 kts | 136° |
| 2026-04-25 11:27 | 55.35210 | -131.70483 | 88 ft | 10 kts | 136° |
| 2026-04-25 11:27 | 55.35147 | -131.70380 | 88 ft | 12 kts | 137° |
| 2026-04-25 11:27 | 55.35104 | -131.70312 | 89 ft | 12 kts | 137° |
| 2026-04-25 11:28 | 55.35017 | -131.70174 | 89 ft | 8 kts | 137° |
| 2026-04-25 11:28 | 55.34990 | -131.70131 | 90 ft | 2 kts | 138° |
| 2026-04-25 11:28 | 55.34987 | -131.70125 | 90 ft | 0 kts | 138° |
| 2026-04-25 11:28 | 55.34978 | -131.70113 | 90 ft | 5 kts | 139° |
| 2026-04-25 11:29 | 55.34941 | -131.70056 | 91 ft | 5 kts | 141° |
| 2026-04-25 11:29 | 55.34923 | -131.70039 | 91 ft | 1 kts | 164° |
| 2026-04-25 11:29 | 55.34907 | -131.70038 | 91 ft | 6 kts | 180° |
| 2026-04-25 11:29 | 55.34868 | -131.70055 | 91 ft | 5 kts | 202° |
| 2026-04-25 11:30 | 55.34835 | -131.70096 | 91 ft | 6 kts | 248° |
| 2026-04-25 11:30 | 55.34848 | -131.70160 | 91 ft | 0 kts | 309° |
| 2026-04-25 11:31 | 55.34964 | -131.70369 | 91 ft | 58 kts | 315° |
| 2026-04-25 11:31 | 55.35420 | -131.71152 | 89 ft | 124 kts | 315° |
| 2026-04-25 11:31 | 55.36135 | -131.72374 | 370 ft | 154 kts | 317° |
| 2026-04-25 11:32 | 55.36919 | -131.73671 | 1056 ft | 162 kts | 318° |
| 2026-04-25 11:32 | 55.37711 | -131.75018 | 1678 ft | 162 kts | 318° |
| 2026-04-25 11:32 | 55.38548 | -131.76462 | 2061 ft | 172 kts | 317° |
| 2026-04-25 11:32 | 55.39422 | -131.77956 | 2456 ft | 182 kts | 318° |
| 2026-04-25 11:33 | 55.40347 | -131.79550 | 2903 ft | 190 kts | 317° |
| 2026-04-25 11:33 | 55.41307 | -131.81192 | 3344 ft | 198 kts | 317° |
| 2026-04-25 11:33 | 55.42298 | -131.82945 | 3801 ft | 208 kts | 316° |
| 2026-04-25 11:33 | 55.43373 | -131.84833 | 4125 ft | 227 kts | 317° |
| 2026-04-25 11:34 | 55.44521 | -131.86806 | 4667 ft | 237 kts | 317° |
| 2026-04-25 11:34 | 55.45643 | -131.88972 | 5186 ft | 249 kts | 303° |
| 2026-04-25 11:34 | 55.46212 | -131.91866 | 5841 ft | 259 kts | 278° |
| 2026-04-25 11:34 | 55.46025 | -131.95081 | 6399 ft | 275 kts | 254° |
| 2026-04-25 11:35 | 55.45051 | -131.97939 | 7199 ft | 280 kts | 229° |
| 2026-04-25 11:35 | 55.43638 | -132.00313 | 7854 ft | 287 kts | 225° |
| 2026-04-25 11:35 | 55.42110 | -132.02624 | 8544 ft | 291 kts | 215° |
| 2026-04-25 11:35 | 55.40269 | -132.03955 | 9290 ft | 292 kts | 191° |
| 2026-04-25 11:36 | 55.38224 | -132.03949 | 9814 ft | 302 kts | 168° |
| 2026-04-25 11:36 | 55.36264 | -132.02622 | 10316 ft | 310 kts | 149° |
| 2026-04-25 11:36 | 55.34522 | -132.00346 | 10718 ft | 321 kts | 136° |
| 2026-04-25 11:36 | 55.32899 | -131.97568 | 11147 ft | 333 kts | 135° |
| 2026-04-25 11:37 | 55.31168 | -131.94743 | 11565 ft | 347 kts | 137° |
| 2026-04-25 11:37 | 55.29314 | -131.91914 | 11995 ft | 362 kts | 139° |
| 2026-04-25 11:37 | 55.27376 | -131.89035 | 12411 ft | 375 kts | 139° |
| 2026-04-25 11:37 | 55.25358 | -131.86058 | 12876 ft | 388 kts | 139° |
| 2026-04-25 11:38 | 55.23262 | -131.82976 | 13501 ft | 396 kts | 139° |
| 2026-04-25 11:38 | 55.21175 | -131.79912 | 14317 ft | 399 kts | 139° |
| 2026-04-25 11:38 | 55.19038 | -131.76782 | 15151 ft | 402 kts | 139° |
| 2026-04-25 11:38 | 55.16898 | -131.73650 | 15949 ft | 407 kts | 139° |
| 2026-04-25 11:39 | 55.14712 | -131.70458 | 16708 ft | 411 kts | 139° |
| 2026-04-25 11:39 | 55.12544 | -131.67296 | 17456 ft | 415 kts | 139° |
| 2026-04-25 11:39 | 55.10319 | -131.64009 | 18216 ft | 419 kts | 136° |
| 2026-04-25 11:39 | 55.08344 | -131.60310 | 18917 ft | 423 kts | 127° |
| 2026-04-25 11:40 | 55.06710 | -131.56026 | 19561 ft | 428 kts | 117° |
| 2026-04-25 11:40 | 55.05504 | -131.51325 | 20202 ft | 432 kts | 108° |
| 2026-04-25 11:40 | 55.04744 | -131.46251 | 20875 ft | 435 kts | 99° |
| 2026-04-25 11:40 | 55.04228 | -131.41084 | 21534 ft | 440 kts | 98° |
| 2026-04-25 11:41 | 55.03715 | -131.35849 | 22147 ft | 445 kts | 98° |
| 2026-04-25 11:41 | 55.03185 | -131.30525 | 22731 ft | 450 kts | 99° |
| 2026-04-25 11:41 | 55.02644 | -131.25185 | 23310 ft | 455 kts | 99° |
| 2026-04-25 11:41 | 55.02084 | -131.19731 | 23893 ft | 459 kts | 99° |
| 2026-04-25 11:42 | 55.01516 | -131.14259 | 24533 ft | 462 kts | 99° |
| 2026-04-25 11:42 | 55.00939 | -131.08737 | 25178 ft | 465 kts | 99° |
| 2026-04-25 11:42 | 55.00357 | -131.03210 | 25780 ft | 469 kts | 99° |
| 2026-04-25 11:42 | 54.99767 | -130.97653 | 26358 ft | 473 kts | 99° |
| 2026-04-25 11:43 | 54.99166 | -130.92020 | 26960 ft | 476 kts | 99° |
| 2026-04-25 11:43 | 54.98562 | -130.86380 | 27537 ft | 479 kts | 99° |
| 2026-04-25 11:43 | 54.97955 | -130.80751 | 28090 ft | 482 kts | 99° |
| 2026-04-25 11:43 | 54.97329 | -130.74977 | 28634 ft | 486 kts | 99° |
| 2026-04-25 11:44 | 54.96699 | -130.69196 | 29163 ft | 489 kts | 99° |
| 2026-04-25 11:44 | 54.96065 | -130.63402 | 29748 ft | 491 kts | 99° |
| 2026-04-25 11:44 | 54.95431 | -130.57637 | 30503 ft | 488 kts | 99° |
| 2026-04-25 11:44 | 54.94795 | -130.51889 | 31375 ft | 483 kts | 99° |
| 2026-04-25 11:45 | 54.94166 | -130.46225 | 32201 ft | 478 kts | 99° |
| 2026-04-25 11:45 | 54.93549 | -130.40692 | 32934 ft | 473 kts | 99° |
| 2026-04-25 11:45 | 54.92918 | -130.35057 | 33568 ft | 471 kts | 99° |
| 2026-04-25 11:45 | 54.92291 | -130.29491 | 34159 ft | 468 kts | 99° |
| 2026-04-25 11:46 | 54.91663 | -130.23926 | 34716 ft | 466 kts | 99° |
| 2026-04-25 11:46 | 54.91043 | -130.18465 | 35087 ft | 466 kts | 99° |
| 2026-04-25 11:46 | 54.89774 | -130.07352 | 35110 ft | 465 kts | 99° |
| 2026-04-25 11:47 | 54.88512 | -129.96403 | 35119 ft | 465 kts | 99° |
| 2026-04-25 11:47 | 54.87243 | -129.85475 | 35127 ft | 465 kts | 99° |
| 2026-04-25 11:48 | 54.85961 | -129.74532 | 35130 ft | 465 kts | 98° |
| 2026-04-25 11:48 | 54.84669 | -129.63596 | 35111 ft | 465 kts | 98° |
| 2026-04-25 11:49 | 54.83363 | -129.52628 | 35109 ft | 466 kts | 98° |
| 2026-04-25 11:49 | 54.82044 | -129.41644 | 35118 ft | 465 kts | 98° |
| 2026-04-25 11:50 | 54.80725 | -129.30751 | 35121 ft | 465 kts | 99° |
| 2026-04-25 11:50 | 54.79390 | -129.19803 | 35119 ft | 466 kts | 99° |
| 2026-04-25 11:51 | 54.78045 | -129.08870 | 35131 ft | 466 kts | 99° |
| 2026-04-25 11:51 | 54.76686 | -128.97908 | 35123 ft | 466 kts | 98° |
| 2026-04-25 11:52 | 54.75326 | -128.87028 | 35134 ft | 466 kts | 98° |
| 2026-04-25 11:52 | 54.73950 | -128.76108 | 35125 ft | 465 kts | 98° |
| 2026-04-25 11:53 | 54.72570 | -128.65239 | 35129 ft | 466 kts | 98° |
| 2026-04-25 11:53 | 54.71169 | -128.54280 | 35122 ft | 466 kts | 98° |
| 2026-04-25 11:54 | 54.69768 | -128.43420 | 35125 ft | 465 kts | 98° |
| 2026-04-25 11:55 | 54.67648 | -128.27125 | 35145 ft | 466 kts | 98° |
| 2026-04-25 11:55 | 54.66214 | -128.16213 | 35145 ft | 464 kts | 98° |
| 2026-04-25 11:56 | 54.64790 | -128.05453 | 35140 ft | 464 kts | 98° |
| 2026-04-25 11:56 | 54.63339 | -127.94569 | 35120 ft | 467 kts | 98° |
| 2026-04-25 11:57 | 54.61882 | -127.83724 | 35102 ft | 465 kts | 98° |
| 2026-04-25 11:57 | 54.60414 | -127.72878 | 35113 ft | 465 kts | 98° |
| 2026-04-25 11:58 | 54.58944 | -127.62096 | 35113 ft | 464 kts | 98° |
| 2026-04-25 11:58 | 54.57465 | -127.51329 | 35103 ft | 463 kts | 97° |
| 2026-04-25 11:59 | 54.55980 | -127.40591 | 35105 ft | 463 kts | 97° |
| 2026-04-25 11:59 | 54.54485 | -127.29853 | 35116 ft | 464 kts | 98° |
| 2026-04-25 12:00 | 54.52204 | -127.13625 | 35111 ft | 465 kts | 98° |
| 2026-04-25 12:01 | 54.49913 | -126.97488 | 35103 ft | 465 kts | 98° |
| 2026-04-25 12:01 | 54.48379 | -126.86783 | 35107 ft | 462 kts | 98° |
| 2026-04-25 12:02 | 54.46060 | -126.70732 | 35129 ft | 464 kts | 97° |
| 2026-04-25 12:02 | 54.43948 | -126.60229 | 35142 ft | 471 kts | 105° |
| 2026-04-25 12:03 | 54.41420 | -126.49867 | 35148 ft | 472 kts | 106° |
| 2026-04-25 12:03 | 54.38855 | -126.39497 | 35147 ft | 469 kts | 106° |
| 2026-04-25 12:04 | 54.36302 | -126.29260 | 35144 ft | 472 kts | 107° |
| 2026-04-25 12:04 | 54.33714 | -126.18952 | 35145 ft | 471 kts | 107° |
| 2026-04-25 12:05 | 54.31139 | -126.08762 | 35145 ft | 470 kts | 107° |
| 2026-04-25 12:05 | 54.28531 | -125.98484 | 35148 ft | 472 kts | 106° |
| 2026-04-25 12:06 | 54.25924 | -125.88273 | 35153 ft | 468 kts | 106° |
| 2026-04-25 12:06 | 54.23309 | -125.78061 | 35153 ft | 473 kts | 106° |
| 2026-04-25 12:07 | 54.20680 | -125.67859 | 35140 ft | 469 kts | 105° |
| 2026-04-25 12:07 | 54.18057 | -125.57724 | 35122 ft | 468 kts | 105° |
| 2026-04-25 12:08 | 54.15429 | -125.47606 | 35119 ft | 469 kts | 105° |
| 2026-04-25 12:08 | 54.12780 | -125.37454 | 35122 ft | 471 kts | 105° |
| 2026-04-25 12:09 | 54.10126 | -125.27337 | 35131 ft | 470 kts | 106° |
| 2026-04-25 12:09 | 54.07467 | -125.17243 | 35133 ft | 469 kts | 106° |
| 2026-04-25 12:10 | 54.04810 | -125.07205 | 35138 ft | 467 kts | 106° |
| 2026-04-25 12:10 | 54.02148 | -124.97192 | 35134 ft | 465 kts | 105° |
| 2026-04-25 12:11 | 53.99454 | -124.87086 | 35114 ft | 470 kts | 105° |
| 2026-04-25 12:11 | 53.96760 | -124.77048 | 35101 ft | 465 kts | 105° |
| 2026-04-25 12:12 | 53.94074 | -124.67070 | 35102 ft | 466 kts | 105° |
| 2026-04-25 12:12 | 53.91392 | -124.57156 | 35115 ft | 466 kts | 105° |
| 2026-04-25 12:13 | 53.88682 | -124.47176 | 35099 ft | 466 kts | 104° |
| 2026-04-25 12:13 | 53.85983 | -124.37282 | 35105 ft | 466 kts | 104° |
| 2026-04-25 12:14 | 53.83252 | -124.27310 | 35095 ft | 469 kts | 105° |
| 2026-04-25 12:14 | 53.80521 | -124.17394 | 35095 ft | 465 kts | 105° |
| 2026-04-25 12:15 | 53.77793 | -124.07519 | 35100 ft | 467 kts | 105° |
| 2026-04-25 12:15 | 53.75055 | -123.97657 | 35105 ft | 466 kts | 105° |
| 2026-04-25 12:16 | 53.72301 | -123.87778 | 35107 ft | 465 kts | 105° |
| 2026-04-25 12:16 | 53.69540 | -123.77904 | 35111 ft | 469 kts | 105° |
| 2026-04-25 12:17 | 53.66768 | -123.68052 | 35116 ft | 465 kts | 105° |
| 2026-04-25 12:17 | 53.63999 | -123.58247 | 35111 ft | 464 kts | 105° |
| 2026-04-25 12:18 | 53.61215 | -123.48417 | 35107 ft | 467 kts | 105° |
| 2026-04-25 12:18 | 53.58423 | -123.38615 | 35106 ft | 464 kts | 105° |
| 2026-04-25 12:19 | 53.54220 | -123.23917 | 35121 ft | 470 kts | 106° |
| 2026-04-25 12:20 | 53.51411 | -123.14164 | 35113 ft | 466 kts | 106° |
| 2026-04-25 12:20 | 53.48586 | -123.04381 | 35102 ft | 467 kts | 105° |
| 2026-04-25 12:21 | 53.45745 | -122.94589 | 35091 ft | 466 kts | 106° |
| 2026-04-25 12:21 | 53.42894 | -122.84798 | 35102 ft | 469 kts | 106° |
| 2026-04-25 12:22 | 53.40028 | -122.75001 | 35120 ft | 469 kts | 106° |
| 2026-04-25 12:22 | 53.37161 | -122.65234 | 35106 ft | 472 kts | 106° |
| 2026-04-25 12:23 | 53.34253 | -122.55382 | 35079 ft | 470 kts | 107° |
| 2026-04-25 12:23 | 53.31355 | -122.45598 | 35065 ft | 467 kts | 106° |
| 2026-04-25 12:24 | 53.28445 | -122.35806 | 35068 ft | 471 kts | 107° |
| 2026-04-25 12:24 | 53.25527 | -122.26038 | 35076 ft | 470 kts | 108° |
| 2026-04-25 12:25 | 53.22615 | -122.16318 | 35077 ft | 472 kts | 108° |
| 2026-04-25 12:25 | 53.19673 | -122.06548 | 35067 ft | 473 kts | 108° |
| 2026-04-25 12:26 | 53.16722 | -121.96787 | 35065 ft | 472 kts | 108° |
| 2026-04-25 12:26 | 53.13768 | -121.87054 | 35063 ft | 472 kts | 109° |
| 2026-04-25 12:27 | 53.10789 | -121.77276 | 35068 ft | 475 kts | 109° |
| 2026-04-25 12:27 | 53.07793 | -121.67489 | 35058 ft | 472 kts | 109° |
| 2026-04-25 12:28 | 53.04813 | -121.57791 | 35174 ft | 474 kts | 109° |
| 2026-04-25 12:28 | 53.03316 | -121.52927 | 35073 ft | 476 kts | 109° |
| 2026-04-25 12:28 | 53.01796 | -121.48008 | 35058 ft | 475 kts | 109° |
| 2026-04-25 12:29 | 52.98787 | -121.38293 | 35047 ft | 475 kts | 110° |
| 2026-04-25 12:29 | 52.95758 | -121.28550 | 35070 ft | 478 kts | 110° |
| 2026-04-25 12:30 | 52.92702 | -121.18761 | 35065 ft | 480 kts | 111° |
| 2026-04-25 12:30 | 52.89638 | -121.08993 | 35056 ft | 477 kts | 111° |
| 2026-04-25 12:31 | 52.86564 | -120.99222 | 35035 ft | 482 kts | 111° |
| 2026-04-25 12:31 | 52.83484 | -120.89480 | 35024 ft | 480 kts | 111° |
| 2026-04-25 12:32 | 52.80386 | -120.79716 | 35034 ft | 480 kts | 111° |
| 2026-04-25 12:32 | 52.77286 | -120.69988 | 35033 ft | 480 kts | 111° |
| 2026-04-25 12:33 | 52.74176 | -120.60260 | 35027 ft | 481 kts | 111° |
| 2026-04-25 12:33 | 52.71053 | -120.50539 | 35028 ft | 480 kts | 111° |
| 2026-04-25 12:34 | 52.67913 | -120.40797 | 35026 ft | 482 kts | 112° |
| 2026-04-25 12:34 | 52.64774 | -120.31100 | 35019 ft | 480 kts | 112° |
| 2026-04-25 12:35 | 52.61643 | -120.21465 | 35006 ft | 482 kts | 112° |
| 2026-04-25 12:35 | 52.58498 | -120.11826 | 35004 ft | 481 kts | 112° |
| 2026-04-25 12:36 | 52.55339 | -120.02181 | 35016 ft | 481 kts | 113° |
| 2026-04-25 12:36 | 52.52166 | -119.92529 | 35037 ft | 481 kts | 113° |
| 2026-04-25 12:37 | 52.48988 | -119.82903 | 35036 ft | 480 kts | 113° |
| 2026-04-25 12:37 | 52.45805 | -119.73299 | 35041 ft | 480 kts | 113° |
| 2026-04-25 12:38 | 52.42601 | -119.63666 | 35038 ft | 480 kts | 113° |
| 2026-04-25 12:38 | 52.39414 | -119.54124 | 35047 ft | 479 kts | 113° |
| 2026-04-25 12:39 | 52.36206 | -119.44556 | 35054 ft | 481 kts | 113° |
| 2026-04-25 12:39 | 52.32991 | -119.35003 | 35047 ft | 478 kts | 113° |
| 2026-04-25 12:40 | 52.29794 | -119.25539 | 35073 ft | 481 kts | 114° |
| 2026-04-25 12:40 | 52.26560 | -119.16006 | 35052 ft | 479 kts | 114° |
| 2026-04-25 12:41 | 52.23341 | -119.06549 | 35023 ft | 479 kts | 114° |
| 2026-04-25 12:41 | 52.20116 | -118.97112 | 35011 ft | 480 kts | 114° |
| 2026-04-25 12:42 | 52.16863 | -118.87629 | 34989 ft | 478 kts | 114° |
| 2026-04-25 12:42 | 52.13628 | -118.78233 | 34998 ft | 479 kts | 114° |
| 2026-04-25 12:43 | 52.10358 | -118.68772 | 35004 ft | 478 kts | 114° |
| 2026-04-25 12:43 | 52.05449 | -118.54635 | 35051 ft | 479 kts | 114° |
| 2026-04-25 12:44 | 52.02181 | -118.45268 | 35078 ft | 480 kts | 115° |
| 2026-04-25 12:45 | 51.97249 | -118.31198 | 35017 ft | 480 kts | 115° |
| 2026-04-25 12:45 | 51.92291 | -118.17133 | 34975 ft | 479 kts | 115° |
| 2026-04-25 12:46 | 51.88995 | -118.07825 | 34988 ft | 480 kts | 115° |
| 2026-04-25 12:46 | 51.85657 | -117.98434 | 35027 ft | 481 kts | 115° |
| 2026-04-25 12:47 | 51.82339 | -117.89136 | 35025 ft | 481 kts | 115° |
| 2026-04-25 12:47 | 51.78999 | -117.79809 | 35025 ft | 481 kts | 115° |
| 2026-04-25 12:48 | 51.75657 | -117.70509 | 35035 ft | 481 kts | 116° |
| 2026-04-25 12:48 | 51.72284 | -117.61158 | 35075 ft | 481 kts | 116° |
| 2026-04-25 12:49 | 51.68914 | -117.51852 | 35125 ft | 482 kts | 115° |
| 2026-04-25 12:49 | 51.65552 | -117.42600 | 35129 ft | 483 kts | 116° |
| 2026-04-25 12:50 | 51.62156 | -117.33289 | 35107 ft | 482 kts | 116° |
| 2026-04-25 12:50 | 51.58761 | -117.24013 | 35094 ft | 484 kts | 116° |
| 2026-04-25 12:51 | 51.55577 | -117.14551 | 35100 ft | 481 kts | 111° |
| 2026-04-25 12:51 | 51.52644 | -117.04912 | 35090 ft | 481 kts | 112° |
| 2026-04-25 12:52 | 51.49683 | -116.95297 | 35103 ft | 482 kts | 112° |
| 2026-04-25 12:52 | 51.46697 | -116.85691 | 35057 ft | 481 kts | 112° |
| 2026-04-25 12:53 | 51.43719 | -116.76171 | 35012 ft | 480 kts | 112° |
| 2026-04-25 12:53 | 51.40705 | -116.66585 | 35008 ft | 483 kts | 112° |
| 2026-04-25 12:54 | 51.37678 | -116.57005 | 35000 ft | 483 kts | 112° |
| 2026-04-25 12:54 | 51.34634 | -116.47412 | 34959 ft | 485 kts | 112° |
| 2026-04-25 12:55 | 51.32081 | -116.39400 | 34924 ft | 483 kts | 112° |
| 2026-04-25 12:55 | 51.28525 | -116.28280 | 34916 ft | 485 kts | 113° |
| 2026-04-25 12:56 | 51.25465 | -116.18755 | 34927 ft | 484 kts | 113° |
| 2026-04-25 12:56 | 51.22393 | -116.09226 | 34969 ft | 486 kts | 113° |
| 2026-04-25 12:57 | 51.19306 | -115.99686 | 34989 ft | 487 kts | 113° |
| 2026-04-25 12:57 | 51.16180 | -115.90067 | 34959 ft | 488 kts | 113° |
| 2026-04-25 12:58 | 51.13068 | -115.80525 | 34932 ft | 490 kts | 113° |
| 2026-04-25 12:58 | 51.09935 | -115.70959 | 34923 ft | 488 kts | 113° |
| 2026-04-25 12:59 | 51.06785 | -115.61375 | 34927 ft | 491 kts | 113° |
| 2026-04-25 12:59 | 51.03627 | -115.51807 | 34951 ft | 491 kts | 113° |
| 2026-04-25 13:00 | 51.00980 | -115.43813 | 34945 ft | 493 kts | 113° |
| 2026-04-25 13:00 | 50.97262 | -115.32629 | 34913 ft | 492 kts | 114° |
| 2026-04-25 13:01 | 50.94067 | -115.23055 | 34893 ft | 493 kts | 114° |
| 2026-04-25 13:01 | 50.90850 | -115.13456 | 34910 ft | 492 kts | 115° |
| 2026-04-25 13:02 | 50.87634 | -115.03895 | 34905 ft | 493 kts | 114° |
| 2026-04-25 13:02 | 50.84418 | -114.94370 | 34907 ft | 493 kts | 115° |
| 2026-04-25 13:03 | 50.81179 | -114.84811 | 34916 ft | 496 kts | 115° |
| 2026-04-25 13:03 | 50.77945 | -114.75306 | 34916 ft | 494 kts | 115° |
| 2026-04-25 13:04 | 50.74663 | -114.65698 | 34934 ft | 497 kts | 115° |
| 2026-04-25 13:04 | 50.71401 | -114.56180 | 34953 ft | 496 kts | 115° |
| 2026-04-25 13:05 | 50.68096 | -114.46576 | 34980 ft | 495 kts | 115° |
| 2026-04-25 13:05 | 50.64799 | -114.37029 | 34983 ft | 498 kts | 115° |
| 2026-04-25 13:06 | 50.61492 | -114.27491 | 34997 ft | 499 kts | 116° |
| 2026-04-25 13:06 | 50.58183 | -114.17982 | 34995 ft | 498 kts | 116° |
| 2026-04-25 13:07 | 50.54871 | -114.08502 | 34995 ft | 498 kts | 116° |
| 2026-04-25 13:07 | 50.51528 | -113.98970 | 35000 ft | 497 kts | 116° |
| 2026-04-25 13:08 | 50.48193 | -113.89490 | 35008 ft | 500 kts | 116° |
| 2026-04-25 13:08 | 50.44829 | -113.79967 | 35014 ft | 499 kts | 116° |
| 2026-04-25 13:09 | 50.41463 | -113.70476 | 35017 ft | 499 kts | 116° |
| 2026-04-25 13:09 | 50.38087 | -113.60988 | 35022 ft | 500 kts | 116° |
| 2026-04-25 13:10 | 50.34690 | -113.51479 | 35019 ft | 499 kts | 116° |
| 2026-04-25 13:10 | 50.31288 | -113.41989 | 35022 ft | 500 kts | 116° |
| 2026-04-25 13:11 | 50.27895 | -113.32561 | 35023 ft | 501 kts | 117° |
| 2026-04-25 13:11 | 50.24469 | -113.23074 | 35021 ft | 501 kts | 117° |
| 2026-04-25 13:12 | 50.21052 | -113.13649 | 35021 ft | 503 kts | 117° |
| 2026-04-25 13:12 | 50.18192 | -113.05787 | 35015 ft | 502 kts | 117° |
| 2026-04-25 13:13 | 50.14175 | -112.94782 | 35017 ft | 502 kts | 117° |
| 2026-04-25 13:13 | 50.10706 | -112.85317 | 35023 ft | 501 kts | 117° |
| 2026-04-25 13:14 | 50.07221 | -112.75843 | 35033 ft | 503 kts | 117° |
| 2026-04-25 13:14 | 50.03745 | -112.66431 | 35036 ft | 504 kts | 117° |
| 2026-04-25 13:15 | 50.00258 | -112.57020 | 35043 ft | 505 kts | 117° |
| 2026-04-25 13:15 | 49.96739 | -112.47558 | 35044 ft | 504 kts | 117° |
| 2026-04-25 13:16 | 49.93229 | -112.38155 | 35047 ft | 504 kts | 117° |
| 2026-04-25 13:16 | 49.89716 | -112.28777 | 35036 ft | 505 kts | 118° |
| 2026-04-25 13:17 | 49.86193 | -112.19405 | 35032 ft | 505 kts | 118° |
| 2026-04-25 13:17 | 49.82653 | -112.10023 | 35033 ft | 505 kts | 118° |
| 2026-04-25 13:18 | 49.79114 | -112.00678 | 35029 ft | 506 kts | 118° |
| 2026-04-25 13:18 | 49.75560 | -111.91328 | 35030 ft | 506 kts | 118° |
| 2026-04-25 13:19 | 49.71974 | -111.81926 | 35025 ft | 507 kts | 118° |
| 2026-04-25 13:19 | 49.69013 | -111.74187 | 35032 ft | 507 kts | 118° |
| 2026-04-25 13:20 | 49.64823 | -111.63277 | 35028 ft | 508 kts | 118° |
| 2026-04-25 13:20 | 49.61209 | -111.53902 | 35022 ft | 508 kts | 118° |
| 2026-04-25 13:21 | 49.57603 | -111.44582 | 35029 ft | 509 kts | 118° |
| 2026-04-25 13:21 | 49.53997 | -111.35294 | 35023 ft | 509 kts | 118° |
| 2026-04-25 13:22 | 49.50346 | -111.25925 | 35018 ft | 511 kts | 119° |
| 2026-04-25 13:23 | 49.44883 | -111.11968 | 35015 ft | 510 kts | 119° |
| 2026-04-25 13:23 | 49.41208 | -111.02620 | 35019 ft | 510 kts | 119° |
| 2026-04-25 13:24 | 49.37553 | -110.93355 | 35011 ft | 512 kts | 119° |
| 2026-04-25 13:24 | 49.33881 | -110.84080 | 35007 ft | 510 kts | 119° |
| 2026-04-25 13:25 | 49.30190 | -110.74791 | 34992 ft | 511 kts | 119° |
| 2026-04-25 13:25 | 49.26500 | -110.65535 | 34999 ft | 512 kts | 119° |
| 2026-04-25 13:26 | 49.22782 | -110.56241 | 34990 ft | 512 kts | 119° |
| 2026-04-25 13:26 | 49.19089 | -110.47045 | 34979 ft | 511 kts | 119° |
| 2026-04-25 13:27 | 49.15365 | -110.37800 | 34986 ft | 513 kts | 120° |
| 2026-04-25 13:27 | 49.11615 | -110.28525 | 34994 ft | 512 kts | 120° |
| 2026-04-25 13:28 | 49.07882 | -110.19325 | 34996 ft | 512 kts | 120° |
| 2026-04-25 13:28 | 49.04152 | -110.10162 | 35004 ft | 513 kts | 120° |
| 2026-04-25 13:29 | 49.00418 | -110.00951 | 35004 ft | 512 kts | 117° |
| 2026-04-25 13:29 | 48.97798 | -109.90966 | 35009 ft | 509 kts | 105° |
| 2026-04-25 13:30 | 48.94624 | -109.75593 | 35003 ft | 509 kts | 106° |
| 2026-04-25 13:31 | 48.91362 | -109.60320 | 35014 ft | 512 kts | 106° |
| 2026-04-25 13:31 | 48.89133 | -109.50060 | 35011 ft | 511 kts | 107° |
| 2026-04-25 13:32 | 48.86904 | -109.39890 | 34997 ft | 512 kts | 107° |
| 2026-04-25 13:32 | 48.84647 | -109.29669 | 34995 ft | 512 kts | 108° |
| 2026-04-25 13:33 | 48.82371 | -109.19424 | 34988 ft | 512 kts | 108° |
| 2026-04-25 13:33 | 48.80087 | -109.09197 | 34997 ft | 512 kts | 108° |
| 2026-04-25 13:34 | 48.77801 | -108.99015 | 34965 ft | 512 kts | 108° |
| 2026-04-25 13:34 | 48.75518 | -108.88899 | 34970 ft | 513 kts | 108° |
| 2026-04-25 13:35 | 48.73195 | -108.78653 | 34944 ft | 514 kts | 108° |
| 2026-04-25 13:35 | 48.70881 | -108.68499 | 34957 ft | 514 kts | 108° |
| 2026-04-25 13:36 | 48.68541 | -108.58282 | 34935 ft | 514 kts | 108° |
| 2026-04-25 13:36 | 48.66204 | -108.48121 | 34965 ft | 515 kts | 108° |
| 2026-04-25 13:37 | 48.63851 | -108.37946 | 34963 ft | 514 kts | 108° |
| 2026-04-25 13:37 | 48.61484 | -108.27752 | 34958 ft | 516 kts | 109° |
| 2026-04-25 13:38 | 48.59098 | -108.17532 | 34961 ft | 515 kts | 109° |
| 2026-04-25 13:38 | 48.56723 | -108.07401 | 34956 ft | 516 kts | 109° |
| 2026-04-25 13:39 | 48.54335 | -107.97260 | 34962 ft | 515 kts | 109° |
| 2026-04-25 13:39 | 48.51921 | -107.87062 | 34977 ft | 516 kts | 109° |
| 2026-04-25 13:40 | 48.49506 | -107.76907 | 35001 ft | 517 kts | 109° |
| 2026-04-25 13:40 | 48.47084 | -107.66767 | 34998 ft | 516 kts | 109° |
| 2026-04-25 13:41 | 48.44659 | -107.56666 | 35002 ft | 518 kts | 109° |
| 2026-04-25 13:41 | 48.42207 | -107.46497 | 34990 ft | 517 kts | 109° |
| 2026-04-25 13:42 | 48.39748 | -107.36341 | 34995 ft | 518 kts | 109° |
| 2026-04-25 13:42 | 48.37283 | -107.26211 | 34973 ft | 517 kts | 110° |
| 2026-04-25 13:43 | 48.34802 | -107.16065 | 34979 ft | 519 kts | 110° |
| 2026-04-25 13:43 | 48.32316 | -107.05940 | 34978 ft | 517 kts | 110° |
| 2026-04-25 13:44 | 48.29828 | -106.95856 | 34985 ft | 518 kts | 110° |
| 2026-04-25 13:44 | 48.27330 | -106.85771 | 34962 ft | 518 kts | 110° |
| 2026-04-25 13:45 | 48.24817 | -106.75678 | 34981 ft | 518 kts | 111° |
| 2026-04-25 13:45 | 48.22152 | -106.65736 | 34973 ft | 519 kts | 118° |
| 2026-04-25 13:46 | 48.18026 | -106.56904 | 34989 ft | 515 kts | 131° |
| 2026-04-25 13:46 | 48.13391 | -106.48792 | 34981 ft | 516 kts | 132° |
| 2026-04-25 13:47 | 48.08694 | -106.40688 | 34957 ft | 516 kts | 132° |
| 2026-04-25 13:47 | 48.03979 | -106.32616 | 34950 ft | 518 kts | 133° |
| 2026-04-25 13:48 | 47.99265 | -106.24592 | 34964 ft | 515 kts | 133° |
| 2026-04-25 13:48 | 47.94537 | -106.16579 | 34970 ft | 515 kts | 134° |
| 2026-04-25 13:49 | 47.89820 | -106.08617 | 34978 ft | 515 kts | 134° |
| 2026-04-25 13:49 | 47.85082 | -106.00647 | 34977 ft | 514 kts | 134° |
| 2026-04-25 13:50 | 47.80354 | -105.92719 | 34977 ft | 514 kts | 134° |
| 2026-04-25 13:50 | 47.75605 | -105.84782 | 34982 ft | 514 kts | 134° |
| 2026-04-25 13:51 | 47.70870 | -105.76891 | 34959 ft | 514 kts | 134° |
| 2026-04-25 13:51 | 47.66114 | -105.68990 | 34967 ft | 514 kts | 134° |
| 2026-04-25 13:52 | 47.61360 | -105.61114 | 34968 ft | 512 kts | 134° |
| 2026-04-25 13:52 | 47.56638 | -105.53316 | 34989 ft | 513 kts | 134° |
| 2026-04-25 13:53 | 47.51873 | -105.45468 | 34970 ft | 513 kts | 134° |
| 2026-04-25 13:53 | 47.47106 | -105.37643 | 34979 ft | 513 kts | 134° |
| 2026-04-25 13:54 | 47.42354 | -105.29862 | 34978 ft | 512 kts | 135° |
| 2026-04-25 13:54 | 47.37573 | -105.22057 | 34956 ft | 512 kts | 135° |
| 2026-04-25 13:55 | 47.32832 | -105.14342 | 34975 ft | 512 kts | 135° |
| 2026-04-25 13:55 | 47.28039 | -105.06563 | 34973 ft | 511 kts | 135° |
| 2026-04-25 13:56 | 47.23250 | -104.98814 | 34977 ft | 512 kts | 135° |
| 2026-04-25 13:56 | 47.18483 | -104.91122 | 35003 ft | 510 kts | 135° |
| 2026-04-25 13:57 | 47.13687 | -104.83405 | 34988 ft | 510 kts | 135° |
| 2026-04-25 13:57 | 47.08909 | -104.75742 | 34998 ft | 510 kts | 135° |
| 2026-04-25 13:58 | 47.04124 | -104.68086 | 35017 ft | 509 kts | 136° |
| 2026-04-25 13:58 | 46.99333 | -104.60445 | 35014 ft | 510 kts | 136° |
| 2026-04-25 13:59 | 46.94552 | -104.52841 | 35013 ft | 510 kts | 136° |
| 2026-04-25 13:59 | 46.89743 | -104.45213 | 35001 ft | 509 kts | 136° |
| 2026-04-25 14:00 | 46.84945 | -104.37625 | 34994 ft | 510 kts | 136° |
| 2026-04-25 14:00 | 46.80154 | -104.30068 | 34990 ft | 510 kts | 137° |
| 2026-04-25 14:01 | 46.75361 | -104.22531 | 34972 ft | 510 kts | 137° |
| 2026-04-25 14:01 | 46.70551 | -104.14987 | 34977 ft | 509 kts | 137° |
| 2026-04-25 14:02 | 46.65747 | -104.07475 | 34984 ft | 509 kts | 137° |
| 2026-04-25 14:02 | 46.60923 | -103.99952 | 34974 ft | 508 kts | 137° |
| 2026-04-25 14:03 | 46.56089 | -103.92435 | 34995 ft | 509 kts | 137° |
| 2026-04-25 14:03 | 46.51251 | -103.84932 | 34990 ft | 508 kts | 137° |
| 2026-04-25 14:04 | 46.46410 | -103.77445 | 35003 ft | 507 kts | 137° |
| 2026-04-25 14:04 | 46.41584 | -103.70004 | 35005 ft | 508 kts | 137° |
| 2026-04-25 14:05 | 46.36769 | -103.62599 | 34996 ft | 506 kts | 137° |
| 2026-04-25 14:05 | 46.31945 | -103.55202 | 34980 ft | 508 kts | 138° |
| 2026-04-25 14:06 | 46.27078 | -103.47759 | 35003 ft | 506 kts | 138° |
| 2026-04-25 14:06 | 46.22226 | -103.40356 | 35006 ft | 504 kts | 138° |
| 2026-04-25 14:07 | 46.17405 | -103.33025 | 35012 ft | 507 kts | 139° |
| 2026-04-25 14:07 | 46.12584 | -103.25712 | 35008 ft | 505 kts | 139° |
| 2026-04-25 14:08 | 46.07738 | -103.18382 | 35005 ft | 506 kts | 139° |
| 2026-04-25 14:08 | 46.02915 | -103.11105 | 35007 ft | 505 kts | 139° |
| 2026-04-25 14:09 | 45.98077 | -103.03825 | 35004 ft | 503 kts | 139° |
| 2026-04-25 14:09 | 45.93200 | -102.96508 | 34994 ft | 504 kts | 139° |
| 2026-04-25 14:10 | 45.88338 | -102.89231 | 35003 ft | 503 kts | 139° |
| 2026-04-25 14:10 | 45.83523 | -102.82046 | 35010 ft | 504 kts | 139° |
| 2026-04-25 14:11 | 45.78648 | -102.74790 | 35021 ft | 504 kts | 139° |
| 2026-04-25 14:11 | 45.73801 | -102.67595 | 35017 ft | 503 kts | 139° |
| 2026-04-25 14:12 | 45.68940 | -102.60399 | 35022 ft | 503 kts | 139° |
| 2026-04-25 14:12 | 45.64085 | -102.53229 | 35022 ft | 503 kts | 139° |
| 2026-04-25 14:13 | 45.59226 | -102.46074 | 35038 ft | 503 kts | 139° |
| 2026-04-25 14:13 | 45.54353 | -102.38918 | 35039 ft | 503 kts | 139° |
| 2026-04-25 14:14 | 45.49502 | -102.31810 | 35023 ft | 502 kts | 140° |
| 2026-04-25 14:14 | 45.44659 | -102.24736 | 35029 ft | 501 kts | 140° |
| 2026-04-25 14:15 | 45.39774 | -102.17616 | 35043 ft | 501 kts | 140° |
| 2026-04-25 14:15 | 45.34923 | -102.10566 | 35034 ft | 500 kts | 140° |
| 2026-04-25 14:16 | 45.30080 | -102.03545 | 35055 ft | 500 kts | 140° |
| 2026-04-25 14:16 | 45.25235 | -101.96540 | 35047 ft | 500 kts | 140° |
| 2026-04-25 14:17 | 45.20345 | -101.89489 | 35054 ft | 500 kts | 140° |
| 2026-04-25 14:17 | 45.15500 | -101.82520 | 35052 ft | 499 kts | 140° |
| 2026-04-25 14:18 | 45.10593 | -101.75481 | 35068 ft | 500 kts | 140° |
| 2026-04-25 14:18 | 45.05566 | -101.68771 | 35059 ft | 496 kts | 144° |
| 2026-04-25 14:19 | 45.00362 | -101.62352 | 35059 ft | 496 kts | 145° |
| 2026-04-25 14:19 | 44.95164 | -101.55969 | 35067 ft | 496 kts | 145° |
| 2026-04-25 14:20 | 44.89968 | -101.49605 | 35067 ft | 494 kts | 145° |
| 2026-04-25 14:20 | 44.84737 | -101.43219 | 35093 ft | 496 kts | 145° |
| 2026-04-25 14:21 | 44.79546 | -101.36897 | 35068 ft | 495 kts | 145° |
| 2026-04-25 14:21 | 44.74364 | -101.30600 | 35079 ft | 492 kts | 146° |
| 2026-04-25 14:22 | 44.69174 | -101.24314 | 35074 ft | 495 kts | 146° |
| 2026-04-25 14:22 | 44.63961 | -101.18012 | 35073 ft | 494 kts | 146° |
| 2026-04-25 14:23 | 44.58772 | -101.11755 | 35079 ft | 494 kts | 146° |
| 2026-04-25 14:23 | 44.53566 | -101.05496 | 35077 ft | 495 kts | 146° |
| 2026-04-25 14:23 | 44.50964 | -101.02372 | 34972 ft | 494 kts | 146° |
| 2026-04-25 14:24 | 44.48361 | -100.99251 | 35047 ft | 494 kts | 146° |
| 2026-04-25 14:24 | 44.43103 | -100.92960 | 35072 ft | 499 kts | 146° |
| 2026-04-25 14:25 | 44.37870 | -100.86710 | 35083 ft | 495 kts | 146° |
| 2026-04-25 14:25 | 44.32627 | -100.80465 | 35074 ft | 495 kts | 146° |
| 2026-04-25 14:26 | 44.27401 | -100.74257 | 35081 ft | 496 kts | 146° |
| 2026-04-25 14:26 | 44.22163 | -100.68049 | 35077 ft | 496 kts | 146° |
| 2026-04-25 14:27 | 44.16915 | -100.61844 | 35078 ft | 495 kts | 146° |
| 2026-04-25 14:27 | 44.11650 | -100.55635 | 35093 ft | 498 kts | 146° |
| 2026-04-25 14:28 | 44.06412 | -100.49470 | 35073 ft | 496 kts | 146° |
| 2026-04-25 14:28 | 44.01161 | -100.43308 | 35079 ft | 497 kts | 146° |
| 2026-04-25 14:29 | 43.95898 | -100.37144 | 35073 ft | 496 kts | 146° |
| 2026-04-25 14:29 | 43.90594 | -100.30948 | 35073 ft | 497 kts | 147° |
| 2026-04-25 14:30 | 43.85338 | -100.24822 | 35082 ft | 496 kts | 147° |
| 2026-04-25 14:30 | 43.77432 | -100.15636 | 35084 ft | 496 kts | 147° |
| 2026-04-25 14:31 | 43.72127 | -100.09491 | 35076 ft | 496 kts | 147° |
| 2026-04-25 14:31 | 43.66876 | -100.03423 | 35076 ft | 494 kts | 147° |
| 2026-04-25 14:32 | 43.61603 | -99.97342 | 35078 ft | 493 kts | 147° |
| 2026-04-25 14:32 | 43.56331 | -99.91279 | 35076 ft | 494 kts | 147° |
| 2026-04-25 14:33 | 43.51064 | -99.85234 | 35086 ft | 491 kts | 147° |
| 2026-04-25 14:33 | 43.45811 | -99.79221 | 35086 ft | 492 kts | 147° |
| 2026-04-25 14:34 | 43.40557 | -99.73219 | 35086 ft | 489 kts | 147° |
| 2026-04-25 14:34 | 43.35334 | -99.67269 | 35080 ft | 492 kts | 147° |
| 2026-04-25 14:35 | 43.30072 | -99.61285 | 35063 ft | 488 kts | 147° |
| 2026-04-25 14:35 | 43.24856 | -99.55370 | 35058 ft | 489 kts | 147° |
| 2026-04-25 14:36 | 43.19606 | -99.49427 | 35053 ft | 487 kts | 147° |
| 2026-04-25 14:36 | 43.14389 | -99.43537 | 35050 ft | 486 kts | 147° |
| 2026-04-25 14:37 | 43.09150 | -99.37637 | 35045 ft | 486 kts | 147° |
| 2026-04-25 14:37 | 43.03963 | -99.31806 | 35029 ft | 483 kts | 147° |
| 2026-04-25 14:38 | 42.98760 | -99.25973 | 35039 ft | 485 kts | 147° |
| 2026-04-25 14:38 | 42.93594 | -99.20192 | 35034 ft | 482 kts | 147° |
| 2026-04-25 14:39 | 42.88397 | -99.14391 | 35040 ft | 484 kts | 147° |
| 2026-04-25 14:39 | 42.83206 | -99.08607 | 35041 ft | 480 kts | 147° |
| 2026-04-25 14:40 | 42.78060 | -99.02890 | 35043 ft | 480 kts | 147° |
| 2026-04-25 14:40 | 42.72868 | -98.97133 | 35039 ft | 481 kts | 147° |
| 2026-04-25 14:41 | 42.67729 | -98.91446 | 35034 ft | 479 kts | 147° |
| 2026-04-25 14:41 | 42.62546 | -98.85726 | 35036 ft | 481 kts | 147° |
| 2026-04-25 14:42 | 42.58237 | -98.80978 | 35044 ft | 482 kts | 147° |
| 2026-04-25 14:42 | 42.52175 | -98.74313 | 35043 ft | 481 kts | 147° |
| 2026-04-25 14:43 | 42.46973 | -98.68609 | 35041 ft | 482 kts | 147° |
| 2026-04-25 14:43 | 42.42050 | -98.62328 | 35048 ft | 488 kts | 140° |
| 2026-04-25 14:44 | 42.37285 | -98.55882 | 35034 ft | 487 kts | 141° |
| 2026-04-25 14:44 | 42.32476 | -98.49450 | 35034 ft | 488 kts | 141° |